Terminal Aerodrome Forecast
Issued by NWS Wilmington, NC

Home | Current Version | Previous Version | Text Only | Print | Product List | Glossary On
Versions: 1 2 3 4 5 6 7 8 9 10 11 12 13 14 15
000
FTUS42 KILM 030526
TAFFLO
TAF
KFLO 030526Z 0306/0406 22005KT P6SM SKC
     FM030800 28002KT 5SM BR BKN080
     FM031300 26005KT P6SM SCT080 SCT250
     FM032000 23007KT P6SM VCTS SCT050CB BKN250=

USA.gov is the U.S. government's official web portal to all federal, state and local government web resources and services.